Time;durP1;ratioP1;P1;durP2;ratioP2;P2;SDS_P1;SDS_P2;PMS_P1;PMS_P2;Temp;Humidity;BMP_temperature;BMP_pressure;BME280_temperature;BME280_humidity;BME280_pressure;Samples;Min_cycle;Max_cycle;Signal;HPM_P1;HPM_P2
2023/03/14 00:01:55;;;;;;;12.63;2.80;;;;;;;11.83;100.00;98803.94;6325167;22;20017;-68
2023/03/14 00:04:21;;;;;;;12.90;2.83;;;;;;;11.91;100.00;98812.88;6325482;22;20024;-68
2023/03/14 00:06:46;;;;;;;12.07;3.10;;;;;;;11.98;100.00;98804.22;6325672;22;20014;-68
2023/03/14 00:09:13;;;;;;;13.35;2.95;;;;;;;11.88;100.00;98805.16;6324771;22;20628;-68
2023/03/14 00:11:39;;;;;;;11.50;3.35;;;;;;;11.87;100.00;98802.66;6325133;22;20035;-69
2023/03/14 00:14:04;;;;;;;10.05;2.80;;;;;;;11.99;100.00;98793.38;6323751;22;20457;-68
2023/03/14 00:16:30;;;;;;;14.90;3.70;;;;;;;11.75;100.00;98791.38;6296106;22;20026;-70
2023/03/14 00:18:55;;;;;;;9.32;2.50;;;;;;;11.89;100.00;98801.50;6324012;22;20017;-69
2023/03/14 00:21:20;;;;;;;16.90;5.00;;;;;;;12.04;100.00;98806.25;6297251;22;20025;-69
2023/03/14 00:23:46;;;;;;;13.43;2.60;;;;;;;11.74;100.00;98803.00;6325391;22;20046;-69
2023/03/14 00:26:14;;;;;;;10.18;3.30;;;;;;;11.63;100.00;98811.28;6325542;22;20006;-69
2023/03/14 00:28:40;;;;;;;18.92;3.97;;;;;;;11.63;100.00;98812.09;6325535;22;20018;-70
2023/03/14 00:31:08;;;;;;;10.65;3.53;;;;;;;11.57;100.00;98814.56;6295862;22;20022;-68
2023/03/14 00:33:34;;;;;;;20.23;3.42;;;;;;;11.61;100.00;98814.09;6296229;22;20030;-69
2023/03/14 00:36:02;;;;;;;11.73;3.15;;;;;;;11.52;100.00;98817.69;6323401;22;20014;-69
2023/03/14 00:38:30;;;;;;;15.10;3.80;;;;;;;11.59;100.00;98815.22;6296682;22;20746;-68
2023/03/14 00:40:55;;;;;;;12.23;3.78;;;;;;;11.40;100.00;98814.41;6324979;22;20188;-69
2023/03/14 00:43:21;;;;;;;11.75;3.45;;;;;;;11.46;100.00;98807.63;6325312;22;20022;-68
2023/03/14 00:45:48;;;;;;;8.07;2.67;;;;;;;11.41;100.00;98810.75;6297109;22;20019;-69
2023/03/14 00:48:14;;;;;;;7.45;2.75;;;;;;;11.35;100.00;98799.84;6295892;22;20072;-69
2023/03/14 00:50:39;;;;;;;9.00;3.35;;;;;;;11.38;100.00;98795.03;6294749;22;20015;-68
2023/03/14 00:53:06;;;;;;;9.18;2.88;;;;;;;11.40;100.00;98800.25;6323242;22;20010;-68
2023/03/14 00:55:35;;;;;;;13.50;3.20;;;;;;;11.53;100.00;98802.50;6269956;22;20332;-68
2023/03/14 00:58:01;;;;;;;7.03;3.08;;;;;;;11.57;100.00;98807.38;6295429;22;20022;-68
2023/03/14 01:00:26;;;;;;;15.77;3.78;;;;;;;11.46;100.00;98804.97;6295341;22;20023;-68
2023/03/14 01:02:52;;;;;;;17.10;4.57;;;;;;;11.35;100.00;98814.03;6296478;22;20022;-69
2023/03/14 01:05:17;;;;;;;12.80;3.25;;;;;;;11.45;100.00;98815.81;6324221;22;20015;-69
2023/03/14 01:07:43;;;;;;;15.25;3.72;;;;;;;11.44;100.00;98814.94;6323737;22;20015;-68
2023/03/14 01:10:09;;;;;;;13.77;3.22;;;;;;;11.58;100.00;98818.91;6323467;22;20026;-68
2023/03/14 01:12:36;;;;;;;12.95;3.33;;;;;;;11.49;100.00;98822.47;6323900;22;20015;-69
2023/03/14 01:15:01;;;;;;;6.88;2.53;;;;;;;11.47;100.00;98819.97;6323970;22;20013;-68
2023/03/14 01:17:27;;;;;;;15.52;4.53;;;;;;;11.63;100.00;98827.28;6323933;22;20046;-69
2023/03/14 01:19:52;;;;;;;8.35;3.13;;;;;;;11.64;100.00;98821.78;6324142;22;20430;-69
2023/03/14 01:22:18;;;;;;;7.03;2.33;;;;;;;11.55;100.00;98822.72;6270301;22;20453;-68
2023/03/14 01:24:43;;;;;;;12.85;2.90;;;;;;;11.60;100.00;98819.59;6324252;22;20010;-69
2023/03/14 01:27:09;;;;;;;7.82;3.50;;;;;;;11.54;100.00;98813.03;6323783;22;20025;-68
2023/03/14 01:29:34;;;;;;;7.93;2.05;;;;;;;11.53;100.00;98822.03;6296458;22;20445;-68
2023/03/14 01:32:00;;;;;;;9.75;2.40;;;;;;;11.54;100.00;98818.38;6295098;22;20022;-70
2023/03/14 01:34:25;;;;;;;11.32;2.10;;;;;;;11.55;100.00;98825.41;6295971;22;20081;-68
2023/03/14 01:36:51;;;;;;;11.80;3.08;;;;;;;11.61;100.00;98810.59;6296031;22;20027;-68
2023/03/14 01:39:18;;;;;;;8.40;2.22;;;;;;;11.57;100.00;98811.88;6296293;22;20019;-69
2023/03/14 01:41:43;;;;;;;7.85;2.30;;;;;;;11.59;100.00;98808.06;6296182;22;20018;-72
2023/03/14 01:44:12;;;;;;;6.13;1.98;;;;;;;11.53;100.00;98805.19;6296669;22;20025;-69
2023/03/14 01:46:44;;;;;;;4.72;1.88;;;;;;;11.48;100.00;98799.47;6296073;22;20058;-69
2023/03/14 01:49:22;;;;;;;9.32;1.70;;;;;;;11.52;100.00;98785.66;6296365;22;20076;-68
2023/03/14 01:52:16;;;;;;;10.57;2.75;;;;;;;11.38;100.00;98794.19;6296246;22;20087;-68
2023/03/14 01:54:58;;;;;;;10.23;2.38;;;;;;;11.35;100.00;98778.50;6296296;22;20019;-68
2023/03/14 01:57:39;;;;;;;5.95;1.67;;;;;;;11.35;100.00;98776.69;6296098;22;20049;-68
2023/03/14 02:00:14;;;;;;;8.75;1.77;;;;;;;11.42;100.00;98771.56;6295802;22;20023;-67
2023/03/14 02:02:43;;;;;;;7.45;1.75;;;;;;;11.31;100.00;98766.47;6296356;22;20478;-68
2023/03/14 02:05:11;;;;;;;8.82;1.77;;;;;;;11.45;100.00;98770.44;6296599;22;20026;-69
2023/03/14 02:07:48;;;;;;;8.68;2.15;;;;;;;11.31;100.00;98761.97;6296082;22;20024;-68
2023/03/14 02:10:22;;;;;;;8.32;2.97;;;;;;;11.43;100.00;98759.06;6296558;22;20093;-69
2023/03/14 02:12:49;;;;;;;13.70;1.80;;;;;;;11.31;100.00;98751.28;6323288;22;20449;-67
2023/03/14 02:15:26;;;;;;;6.18;1.60;;;;;;;11.28;100.00;98756.09;6295096;22;20023;-66
2023/03/14 02:18:12;;;;;;;11.48;1.85;;;;;;;11.28;100.00;98756.91;6294328;22;20019;-68
2023/03/14 02:21:20;;;;;;;12.18;1.58;;;;;;;11.33;100.00;98769.81;6324439;22;20019;-68
2023/03/14 02:23:58;;;;;;;5.10;1.33;;;;;;;11.24;100.00;98773.38;6269659;22;20111;-67
2023/03/14 02:26:38;;;;;;;15.65;1.75;;;;;;;11.23;100.00;98777.88;6295926;22;20030;-67
2023/03/14 02:29:03;;;;;;;12.25;2.25;;;;;;;11.24;100.00;98781.38;6296300;22;20018;-67
2023/03/14 02:31:29;;;;;;;6.78;2.13;;;;;;;11.17;100.00;98785.66;6296262;22;20076;-68
2023/03/14 02:33:56;;;;;;;10.07;1.67;;;;;;;10.92;100.00;98790.75;6324407;22;20033;-68
2023/03/14 02:36:23;;;;;;;6.22;1.60;;;;;;;10.82;100.00;98793.47;6324723;22;20011;-67
2023/03/14 02:39:00;;;;;;;8.52;1.50;;;;;;;10.91;100.00;98794.41;6296214;22;20482;-68
2023/03/14 02:41:26;;;;;;;8.25;1.85;;;;;;;10.91;100.00;98794.41;6296605;22;20103;-67
2023/03/14 02:43:59;;;;;;;10.15;1.70;;;;;;;10.72;100.00;98794.50;6296405;22;20018;-68
2023/03/14 02:46:26;;;;;;;7.60;1.42;;;;;;;10.62;100.00;98789.22;6295561;22;20395;-66
2023/03/14 02:48:55;;;;;;;13.27;1.58;;;;;;;10.53;100.00;98793.59;6295283;22;20019;-67
2023/03/14 02:51:22;;;;;;;6.47;1.50;;;;;;;10.50;100.00;98783.25;6269129;22;20230;-67
2023/03/14 02:53:47;;;;;;;6.80;1.90;;;;;;;10.42;100.00;98788.47;6296147;22;20090;-67
2023/03/14 02:56:13;;;;;;;7.10;1.65;;;;;;;10.33;100.00;98792.84;6297682;22;20445;-67
2023/03/14 02:58:39;;;;;;;10.32;2.05;;;;;;;10.43;100.00;98787.47;6325863;22;20010;-68
2023/03/14 03:01:19;;;;;;;10.13;1.95;;;;;;;10.43;100.00;98786.66;6275135;22;20034;-69
2023/03/14 03:03:45;;;;;;;13.48;2.25;;;;;;;10.43;100.00;98790.16;6298328;22;20019;-67
2023/03/14 03:06:11;;;;;;;10.85;2.05;;;;;;;10.25;100.00;98786.59;6325968;22;21080;-69
2023/03/14 03:08:37;;;;;;;11.52;2.25;;;;;;;10.34;100.00;98786.56;6295997;22;20065;-68
2023/03/14 03:11:03;;;;;;;4.93;1.80;;;;;;;10.29;100.00;98779.97;6324649;22;20011;-69
2023/03/14 03:13:31;;;;;;;12.25;2.55;;;;;;;10.31;100.00;98788.66;6297022;22;20080;-68
2023/03/14 03:16:01;;;;;;;11.18;2.22;;;;;;;10.35;100.00;98787.41;6296751;22;20022;-67
2023/03/14 03:18:27;;;;;;;10.00;3.40;;;;;;;10.39;100.00;98772.78;6296886;22;20023;-69
2023/03/14 03:20:52;;;;;;;12.50;2.58;;;;;;;10.39;100.00;98786.09;6325450;22;20026;-69
2023/03/14 03:23:18;;;;;;;12.27;3.10;;;;;;;10.59;100.00;98781.50;6324712;22;20110;-69
2023/03/14 03:25:51;;;;;;;12.45;2.15;;;;;;;10.56;100.00;98788.00;6325467;22;20400;-69
2023/03/14 03:28:17;;;;;;;9.20;1.90;;;;;;;10.41;100.00;98778.81;6271597;22;20019;-68
2023/03/14 03:30:43;;;;;;;11.25;2.55;;;;;;;10.32;100.00;98777.84;6297070;22;20015;-67
2023/03/14 03:33:09;;;;;;;13.18;2.45;;;;;;;10.44;100.00;98773.19;6297580;22;20524;-67
2023/03/14 03:35:41;;;;;;;12.02;2.40;;;;;;;10.40;100.00;98762.97;6297426;22;20019;-68
2023/03/14 03:38:06;;;;;;;9.15;2.17;;;;;;;10.40;100.00;98765.66;6297789;22;20029;-69
2023/03/14 03:40:32;;;;;;;11.23;2.03;;;;;;;10.59;100.00;98762.84;6325528;22;20014;-68
2023/03/14 03:42:57;;;;;;;10.18;2.60;;;;;;;10.36;100.00;98760.59;6297097;22;20042;-68
2023/03/14 03:45:23;;;;;;;12.45;2.13;;;;;;;10.53;100.00;98755.47;6297157;22;20092;-67
2023/03/14 03:47:53;;;;;;;20.95;4.05;;;;;;;10.65;100.00;98753.47;6297005;22;20844;-68
2023/03/14 03:50:19;;;;;;;5.45;2.17;;;;;;;10.62;100.00;98744.75;6325330;22;20011;-67
2023/03/14 03:52:44;;;;;;;8.45;2.20;;;;;;;10.47;100.00;98748.91;6297294;22;20442;-67
2023/03/14 03:55:10;;;;;;;18.98;3.83;;;;;;;10.69;100.00;98746.81;6325600;22;20014;-67
2023/03/14 03:57:35;;;;;;;21.15;3.78;;;;;;;10.71;100.00;98745.69;6325354;22;20026;-67
2023/03/14 04:00:01;;;;;;;17.10;2.70;;;;;;;10.59;100.00;98742.41;6325372;22;20023;-66
2023/03/14 04:02:27;;;;;;;6.10;2.72;;;;;;;10.53;100.00;98748.31;6324957;22;20023;-68
2023/03/14 04:04:52;;;;;;;14.18;3.00;;;;;;;10.55;100.00;98749.00;6297090;22;20251;-68
2023/03/14 04:07:18;;;;;;;11.30;2.42;;;;;;;10.68;100.00;98756.63;6296125;22;20015;-67
2023/03/14 04:09:43;;;;;;;14.45;3.50;;;;;;;10.57;100.00;98743.53;6296284;22;20034;-69
2023/03/14 04:12:25;;;;;;;13.15;3.60;;;;;;;10.55;100.00;98735.69;6297382;22;20014;-69
2023/03/14 04:14:58;;;;;;;9.18;2.40;;;;;;;10.61;100.00;98744.91;6297176;22;20018;-70
2023/03/14 04:17:23;;;;;;;7.47;2.03;;;;;;;10.72;100.00;98738.53;6297653;22;20151;-68
2023/03/14 04:19:51;;;;;;;14.43;3.13;;;;;;;10.73;100.00;98733.03;6297553;22;20015;-68
2023/03/14 04:22:16;;;;;;;13.20;2.95;;;;;;;10.71;100.00;98736.84;6297292;22;20023;-67
2023/03/14 04:24:48;;;;;;;12.40;2.77;;;;;;;10.74;100.00;98729.38;6297653;22;20010;-69
2023/03/14 04:27:14;;;;;;;12.95;5.18;;;;;;;10.72;100.00;98730.53;6297559;22;20439;-69
2023/03/14 04:29:42;;;;;;;13.80;2.67;;;;;;;10.64;100.00;98739.25;6297438;22;20741;-69
2023/03/14 04:32:08;;;;;;;16.10;3.25;;;;;;;10.73;100.00;98734.88;6296545;22;20015;-69
2023/03/14 04:34:35;;;;;;;7.57;3.15;;;;;;;10.55;100.00;98741.03;6297707;22;20037;-68
2023/03/14 04:37:00;;;;;;;6.40;2.08;;;;;;;10.59;100.00;98742.41;6298293;22;20956;-69
2023/03/14 04:39:33;;;;;;;;;;;;;;;10.63;100.00;98738.44;6298110;22;20038;-68
2023/03/14 04:42:06;;;;;;;11.63;2.75;;;;;;;10.74;100.00;98739.22;6297103;22;19988;-68
2023/03/14 04:44:32;;;;;;;14.15;4.25;;;;;;;10.61;100.00;98736.91;6296486;22;20027;-68
2023/03/14 04:46:58;;;;;;;15.73;3.28;;;;;;;10.35;100.00;98744.78;6324875;22;20021;-69
2023/03/14 04:49:24;;;;;;;13.60;3.78;;;;;;;10.49;100.00;98736.28;6296846;22;20049;-68
2023/03/14 04:51:51;;;;;;;15.15;3.25;;;;;;;10.55;100.00;98742.84;6297031;22;20022;-68
2023/03/14 04:54:17;;;;;;;12.50;2.33;;;;;;;10.54;100.00;98727.81;6325042;22;20440;-70
2023/03/14 04:56:43;;;;;;;11.77;2.58;;;;;;;10.47;100.00;98735.59;6296816;22;20613;-68
2023/03/14 04:59:09;;;;;;;13.90;2.33;;;;;;;10.49;100.00;98719.44;6295817;22;20076;-70
2023/03/14 05:01:37;;;;;;;9.48;2.88;;;;;;;10.54;100.00;98723.38;6296176;22;20014;-69
2023/03/14 05:04:35;;;;;;;8.70;2.58;;;;;;;10.52;100.00;98724.47;6304796;22;20014;-69
2023/03/14 05:07:13;;;;;;;8.75;2.92;;;;;;;10.56;100.00;98721.38;6295003;22;20034;-67
2023/03/14 05:09:48;;;;;;;17.33;3.30;;;;;;;10.58;100.00;98715.88;6294558;22;20018;-70
2023/03/14 05:12:32;;;;;;;18.30;2.72;;;;;;;10.55;100.00;98716.19;6323756;22;20506;-69
2023/03/14 05:15:07;;;;;;;12.20;3.42;;;;;;;10.51;100.00;98725.47;6296466;22;20107;-68
2023/03/14 05:17:59;;;;;;;13.98;2.45;;;;;;;10.38;100.00;98723.16;6299087;22;20027;-69
2023/03/14 05:20:51;;;;;;;8.60;1.90;;;;;;;10.29;100.00;98727.56;6299818;22;20023;-69
2023/03/14 05:23:23;;;;;;;16.98;2.65;;;;;;;10.22;100.00;98734.41;6295080;22;20010;-68
2023/03/14 05:26:03;;;;;;;17.42;3.70;;;;;;;10.18;100.00;98725.03;6294974;22;20023;-67
2023/03/14 05:28:46;;;;;;;10.68;2.20;;;;;;;10.06;100.00;98719.06;6294739;22;20187;-68
2023/03/14 05:31:20;;;;;;;14.13;2.63;;;;;;;10.20;100.00;98722.25;6294651;22;20019;-68
2023/03/14 05:33:53;;;;;;;8.45;2.15;;;;;;;10.10;100.00;98715.13;6322262;22;20927;-69
2023/03/14 05:36:54;;;;;;;12.98;3.67;;;;;;;9.90;100.00;98724.16;6307905;22;20019;-68
2023/03/14 05:39:38;;;;;;;10.65;4.28;;;;;;;9.92;100.00;98714.22;6321924;22;20033;-68
2023/03/14 05:42:24;;;;;;;14.82;2.85;;;;;;;9.93;100.00;98721.19;6272693;22;20022;-68
2023/03/14 05:44:57;;;;;;;12.30;3.03;;;;;;;9.95;100.00;98715.75;6321452;22;20034;-68
2023/03/14 05:47:44;;;;;;;11.60;3.00;;;;;;;9.85;100.00;98711.28;6293131;22;20018;-68
2023/03/14 05:50:42;;;;;;;10.70;1.75;;;;;;;9.91;100.00;98709.03;6302426;22;20185;-70
2023/03/14 05:53:23;;;;;;;6.28;2.00;;;;;;;9.76;100.00;98711.31;6294327;22;20072;-68
2023/03/14 05:56:10;;;;;;;11.52;2.78;;;;;;;9.87;100.00;98721.78;6295301;22;20102;-69
2023/03/14 05:58:49;;;;;;;7.97;2.55;;;;;;;9.98;100.00;98724.25;6295298;22;20014;-71
2023/03/14 06:01:44;;;;;;;9.63;2.20;;;;;;;9.89;100.00;98725.16;6227489;23;20044;-67
2023/03/14 06:04:15;;;;;;;7.28;2.45;;;;;;;10.05;100.00;98725.38;6223454;23;20159;-67
2023/03/14 06:06:42;;;;;;;12.30;3.30;;;;;;;10.17;100.00;98723.34;6201027;23;20054;-68
2023/03/14 06:09:09;;;;;;;6.20;2.50;;;;;;;10.26;100.00;98727.84;6200698;23;20164;-67
2023/03/14 06:11:37;;;;;;;11.10;2.92;;;;;;;10.39;100.00;98722.16;6199791;23;20031;-67
2023/03/14 06:14:04;;;;;;;8.82;3.25;;;;;;;10.20;100.00;98717.75;6201618;23;20118;-66
2023/03/14 06:16:31;;;;;;;8.00;2.97;;;;;;;10.28;100.00;98711.69;6201202;23;20024;-67
2023/03/14 06:18:58;;;;;;;5.05;2.88;;;;;;;10.49;100.00;98700.78;6201933;23;20055;-67
2023/03/14 06:21:23;;;;;;;7.85;2.63;;;;;;;10.49;100.00;98696.31;6227219;23;20020;-67
2023/03/14 06:23:49;;;;;;;8.52;3.72;;;;;;;10.60;100.00;98696.09;6201172;23;20067;-67
2023/03/14 06:26:15;;;;;;;6.07;2.88;;;;;;;10.49;100.00;98711.44;6201370;23;20117;-67
2023/03/14 06:28:41;;;;;;;7.43;3.35;;;;;;;10.52;100.00;98706.66;6201365;23;20734;-74
2023/03/14 06:31:07;;;;;;;7.63;3.15;;;;;;;10.65;100.00;98716.16;6201177;23;20024;-67
2023/03/14 06:33:40;;;;;;;13.25;4.05;;;;;;;10.42;100.00;98713.88;6202606;23;20620;-69
2023/03/14 06:36:07;;;;;;;7.07;4.30;;;;;;;10.60;100.00;98727.25;6202033;23;20020;-67
2023/03/14 06:38:33;;;;;;;6.95;4.25;;;;;;;10.46;100.00;98727.75;6265023;22;20131;-67
2023/03/14 06:41:06;;;;;;;8.30;4.30;;;;;;;10.52;100.00;98716.50;6296335;22;20524;-67
2023/03/14 06:43:40;;;;;;;7.30;4.18;;;;;;;10.45;100.00;98718.91;6296001;22;20042;-67
2023/03/14 06:46:07;;;;;;;12.60;4.80;;;;;;;10.49;100.00;98722.09;6295900;22;20528;-68
2023/03/14 06:48:34;;;;;;;7.80;4.30;;;;;;;10.51;100.00;98726.31;6296613;22;20349;-68
2023/03/14 06:51:00;;;;;;;11.27;4.38;;;;;;;10.60;100.00;98730.75;6295607;22;20030;-67
2023/03/14 06:53:26;;;;;;;10.35;4.93;;;;;;;10.64;100.00;98733.94;6296181;22;20019;-68
2023/03/14 06:55:52;;;;;;;9.55;5.47;;;;;;;10.62;100.00;98735.94;6295255;22;20057;-69
2023/03/14 06:58:19;;;;;;;11.88;5.32;;;;;;;10.96;100.00;98729.97;6295262;22;20015;-68
2023/03/14 07:00:45;;;;;;;11.70;4.93;;;;;;;11.01;100.00;98730.34;6323467;22;20018;-67
2023/03/14 07:03:14;;;;;;;8.88;5.20;;;;;;;10.70;100.00;98737.84;6295450;22;20771;-68
2023/03/14 07:05:42;;;;;;;9.95;5.32;;;;;;;10.74;100.00;98726.72;6294782;22;20068;-67
2023/03/14 07:08:08;;;;;;;9.85;4.70;;;;;;;10.81;100.00;98735.81;6294833;22;20465;-68
2023/03/14 07:10:34;;;;;;;14.82;6.45;;;;;;;11.00;100.00;98729.50;6294875;22;20735;-68
2023/03/14 07:12:59;;;;;;;18.60;5.93;;;;;;;11.07;100.00;98727.88;6294565;22;20106;-67
2023/03/14 07:15:27;;;;;;;8.80;5.28;;;;;;;11.14;100.00;98736.97;6269155;22;20563;-68
2023/03/14 07:17:57;;;;;;;9.40;5.03;;;;;;;11.15;100.00;98738.66;6294703;22;20138;-68
2023/03/14 07:20:24;;;;;;;10.93;5.10;;;;;;;11.04;100.00;98740.69;6294126;22;20420;-68
2023/03/14 07:22:50;;;;;;;13.15;5.10;;;;;;;11.18;100.00;98740.16;6294669;22;20025;-67
2023/03/14 07:25:19;;;;;;;8.13;4.72;;;;;;;11.23;100.00;98734.38;6295391;22;20109;-67
2023/03/14 07:27:46;;;;;;;9.15;5.05;;;;;;;11.06;100.00;98736.06;6295606;22;20018;-67
2023/03/14 07:30:12;;;;;;;9.82;4.78;;;;;;;11.12;100.00;98741.59;6323557;22;20006;-68
2023/03/14 07:32:38;;;;;;;9.77;4.88;;;;;;;11.10;100.00;98748.09;6295877;22;20018;-68
2023/03/14 07:35:04;;;;;;;12.70;5.53;;;;;;;11.45;100.00;98752.59;6323402;22;20095;-67
2023/03/14 07:37:30;;;;;;;12.07;4.68;;;;;;;11.03;100.00;98757.69;6293616;22;20018;-66
2023/03/14 07:39:56;;;;;;;8.13;4.18;;;;;;;11.10;100.00;98759.59;6293444;22;20019;-67
2023/03/14 07:42:25;;;;;;;11.00;4.95;;;;;;;11.29;100.00;98768.44;6295199;22;20043;-67
2023/03/14 07:45:13;;;;;;;9.27;4.47;;;;;;;10.96;100.00;98775.28;6322832;22;20030;-67
2023/03/14 07:47:38;;;;;;;7.43;3.95;;;;;;;10.92;100.00;98784.56;6296332;22;20011;-67
2023/03/14 07:50:04;;;;;;;6.45;3.42;;;;;;;10.81;100.00;98812.28;6324111;22;20011;-67
2023/03/14 07:52:30;;;;;;;12.20;3.92;;;;;;;10.94;100.00;98842.09;6296394;22;20797;-68
2023/03/14 07:54:55;;;;;;;9.35;3.95;;;;;;;10.61;100.00;98833.69;6324474;22;20011;-68
2023/03/14 07:57:21;;;;;;;2.70;1.65;;;;;;;10.40;100.00;98837.59;6324009;22;20015;-68
2023/03/14 07:59:47;;;;;;;3.67;2.30;;;;;;;10.23;100.00;98849.78;6324569;22;20623;-69
2023/03/14 08:02:13;;;;;;;4.82;2.05;;;;;;;10.27;100.00;98852.03;6324529;22;20014;-69
2023/03/14 08:04:39;;;;;;;3.03;1.85;;;;;;;9.99;100.00;98871.53;6324602;22;20017;-68
2023/03/14 08:07:05;;;;;;;3.15;1.42;;;;;;;9.58;100.00;98882.34;6325044;22;20015;-67
2023/03/14 08:09:31;;;;;;;2.55;1.80;;;;;;;9.28;100.00;98895.75;6297696;22;20114;-68
2023/03/14 08:11:56;;;;;;;5.20;1.95;;;;;;;9.13;100.00;98905.09;6324735;22;20014;-68
2023/03/14 08:14:23;;;;;;;0.85;0.80;;;;;;;8.92;100.00;98913.97;6324167;22;20022;-69
2023/03/14 08:16:50;;;;;;;2.17;1.20;;;;;;;9.19;100.00;98928.50;6324939;22;20079;-70
2023/03/14 08:19:15;;;;;;;1.85;0.70;;;;;;;8.72;100.00;98942.28;6295813;22;20654;-69
2023/03/14 08:21:40;;;;;;;5.03;1.13;;;;;;;8.81;100.00;98956.59;6324234;22;20003;-68
2023/03/14 08:24:06;;;;;;;4.25;1.00;;;;;;;8.61;100.00;98962.78;6324048;22;20018;-66
2023/03/14 08:26:32;;;;;;;5.15;1.20;;;;;;;8.44;100.00;98961.59;6295118;22;20026;-68
2023/03/14 08:28:57;;;;;;;2.30;1.05;;;;;;;8.41;100.00;98978.59;6324249;22;20045;-67
2023/03/14 08:31:22;;;;;;;2.70;1.13;;;;;;;8.43;100.00;98984.63;6324505;22;20076;-69
2023/03/14 08:33:48;;;;;;;2.22;1.38;;;;;;;8.72;100.00;98995.44;6324404;22;20014;-68
2023/03/14 08:36:13;;;;;;;1.52;0.90;;;;;;;8.81;100.00;98999.97;6324202;22;20098;-68
2023/03/14 08:38:42;;;;;;;0.75;0.70;;;;;;;8.98;100.00;98992.34;6324398;22;20464;-66
2023/03/14 08:41:08;;;;;;;1.55;0.90;;;;;;;9.00;100.00;98993.06;6296148;22;20037;-66
2023/03/14 08:43:34;;;;;;;5.65;1.80;;;;;;;8.61;100.00;99000.81;6294651;22;20014;-67
2023/03/14 08:46:00;;;;;;;1.35;1.25;;;;;;;8.82;100.00;99014.09;6294535;22;20094;-67
2023/03/14 08:48:27;;;;;;;0.73;0.55;;;;;;;8.79;100.00;99017.88;6323449;22;20021;-70
2023/03/14 08:50:53;;;;;;;1.02;0.80;;;;;;;8.72;100.00;99029.13;6323413;22;20046;-69
2023/03/14 08:53:18;;;;;;;1.42;1.33;;;;;;;8.72;100.00;99051.22;6323965;22;20042;-68
2023/03/14 08:55:43;;;;;;;1.55;0.63;;;;;;;8.53;100.00;99059.94;6295877;22;20010;-68
2023/03/14 08:58:09;;;;;;;1.73;0.82;;;;;;;8.52;100.00;99087.44;6324441;22;20064;-67
2023/03/14 09:00:34;;;;;;;0.70;0.60;;;;;;;8.67;100.00;99093.28;6324083;22;20074;-68
2023/03/14 09:03:00;;;;;;;3.17;0.80;;;;;;;8.63;100.00;99093.69;6324769;22;20319;-66
2023/03/14 09:05:25;;;;;;;2.50;0.77;;;;;;;8.65;100.00;99107.69;6296573;22;20015;-69
2023/03/14 09:07:51;;;;;;;4.75;1.08;;;;;;;8.22;100.00;99127.13;6324416;22;20018;-67
2023/03/14 09:10:16;;;;;;;3.33;1.10;;;;;;;8.15;100.00;99137.41;6324808;22;20018;-69
2023/03/14 09:12:42;;;;;;;11.40;1.30;;;;;;;7.86;100.00;99141.53;6324079;22;20090;-69
2023/03/14 09:15:08;;;;;;;7.28;1.55;;;;;;;7.53;100.00;99169.78;6296903;22;20053;-69
2023/03/14 09:17:34;;;;;;;2.88;0.77;;;;;;;7.68;100.00;99168.56;6324792;22;20017;-69
2023/03/14 09:19:59;;;;;;;0.73;0.68;;;;;;;7.81;100.00;99183.50;6324338;22;20014;-69
2023/03/14 09:22:25;;;;;;;3.42;0.90;;;;;;;7.73;100.00;99203.53;6324640;22;20449;-69
2023/03/14 09:24:50;;;;;;;3.47;0.77;;;;;;;7.76;100.00;99213.06;6324051;22;20075;-67
2023/03/14 09:27:15;;;;;;;1.23;0.52;;;;;;;7.68;100.00;99224.28;6324563;22;20352;-68
2023/03/14 09:29:41;;;;;;;1.33;0.90;;;;;;;7.30;100.00;99243.13;6323926;22;20021;-69
2023/03/14 09:32:07;;;;;;;7.60;0.90;;;;;;;7.09;100.00;99242.94;6324221;22;20011;-67
2023/03/14 09:34:32;;;;;;;4.40;1.05;;;;;;;7.38;100.00;99258.44;6324964;22;20014;-69
2023/03/14 09:36:58;;;;;;;7.75;1.10;;;;;;;7.10;100.00;99267.63;6297009;22;20015;-70
2023/03/14 09:39:23;;;;;;;1.95;0.98;;;;;;;6.99;100.00;99282.53;6324905;22;20478;-67
2023/03/14 09:41:51;;;;;;;4.35;1.23;;;;;;;6.74;100.00;99285.28;6324792;22;20015;-70
2023/03/14 09:44:26;;;;;;;11.30;1.85;;;;;;;7.04;100.00;99308.69;6324539;22;20043;-68
2023/03/14 09:46:54;;;;;;;5.22;1.10;;;;;;;7.15;100.00;99311.38;6325027;22;20165;-68
2023/03/14 09:49:32;;;;;;;2.50;0.70;;;;;;;7.41;100.00;99325.34;6324182;22;20412;-69
2023/03/14 09:52:10;;;;;;;1.75;0.82;;;;;;;7.76;100.00;99335.09;6324222;22;20018;-69
2023/03/14 09:54:40;;;;;;;3.90;1.17;;;;;;;8.23;100.00;99335.91;6324139;22;20028;-70
2023/03/14 09:57:12;;;;;;;5.80;1.10;;;;;;;8.39;100.00;99344.41;6324537;22;20683;-69
2023/03/14 09:59:39;;;;;;;2.55;1.23;;;;;;;8.17;100.00;99350.50;6324872;22;20350;-69
2023/03/14 10:02:25;;;;;;;1.98;0.80;;;;;;;8.07;100.00;99375.22;6324832;22;20097;-69
2023/03/14 10:04:53;;;;;;;10.43;1.00;;;;;;;8.38;100.00;99376.41;6324677;22;20633;-69
2023/03/14 10:07:30;;;;;;;2.45;0.57;;;;;;;8.00;100.00;99385.47;6323875;22;20015;-67
2023/03/14 10:09:57;;;;;;;1.48;0.68;;;;;;;7.77;100.00;99403.13;6324464;22;20068;-69
2023/03/14 10:12:36;;;;;;;4.65;1.20;;;;;;;8.17;100.00;99402.78;6324163;22;20086;-68
2023/03/14 10:15:07;;;;;;;2.03;0.70;;;;;;;7.86;100.00;99422.84;6323969;22;20030;-70
2023/03/14 10:17:47;;;;;;;3.90;0.57;;;;;;;7.93;100.00;99432.88;6295609;22;20018;-71
2023/03/14 10:20:33;;;;;;;5.78;1.85;;;;;;;7.93;100.00;99450.59;6324086;22;20397;-69
2023/03/14 10:23:03;;;;;;;1.05;0.75;;;;;;;8.24;100.00;99452.66;6323388;22;20467;-69
2023/03/14 10:25:31;;;;;;;5.47;0.82;;;;;;;7.83;100.00;99458.41;6324019;22;20018;-69
2023/03/14 10:27:57;;;;;;;2.17;0.70;;;;;;;8.38;100.00;99478.16;6323843;22;20442;-69
2023/03/14 10:30:45;;;;;;;3.30;1.00;;;;;;;8.41;100.00;99483.25;6323460;22;20130;-69
2023/03/14 10:33:25;;;;;;;9.75;1.50;;;;;;;7.95;100.00;99501.78;6323283;22;20018;-69
2023/03/14 10:35:55;;;;;;;2.97;1.02;;;;;;;7.83;100.00;99506.19;6323466;22;20040;-69
2023/03/14 10:38:25;;;;;;;8.05;1.27;;;;;;;7.61;100.00;99529.91;6324249;22;20081;-69
2023/03/14 10:40:53;;;;;;;4.97;1.25;;;;;;;7.12;100.00;99551.97;6323859;22;20075;-68
2023/03/14 10:43:26;;;;;;;12.68;1.45;;;;;;;7.17;100.00;99552.47;6323696;22;20102;-68
2023/03/14 10:45:58;;;;;;;7.13;1.20;;;;;;;7.66;100.00;99567.56;6296123;22;20792;-68
2023/03/14 10:48:37;;;;;;;5.07;0.93;;;;;;;8.02;100.00;99579.97;6324122;22;20014;-69
2023/03/14 10:51:06;;;;;;;12.57;1.60;;;;;;;7.71;100.00;99589.31;6325394;22;20025;-68
2023/03/14 10:53:57;;;;;;;10.23;2.38;;;;;;;8.38;100.00;99583.56;6324284;22;21094;-68
2023/03/14 10:56:25;;;;;;;13.73;2.17;;;;;;;8.40;100.00;99589.63;6295974;22;20019;-68
2023/03/14 10:58:56;;;;;;;9.38;1.88;;;;;;;8.42;100.00;99598.31;6323714;22;20010;-69
2023/03/14 11:01:27;;;;;;;13.02;2.00;;;;;;;8.07;100.00;99614.16;6323189;22;20023;-67
2023/03/14 11:04:10;;;;;;;9.38;1.40;;;;;;;7.76;100.00;99629.63;6323559;22;20023;-68
2023/03/14 11:06:43;;;;;;;10.88;2.17;;;;;;;7.20;100.00;99660.97;6324417;22;20041;-69
2023/03/14 11:09:38;;;;;;;6.90;1.52;;;;;;;6.62;100.00;99689.56;6323576;22;20014;-68
2023/03/14 11:12:25;;;;;;;9.27;1.85;;;;;;;7.23;100.00;99679.34;6323559;22;20019;-69
2023/03/14 11:15:14;;;;;;;10.52;2.25;;;;;;;7.00;100.00;99697.63;6324643;22;20022;-69
2023/03/14 11:17:53;;;;;;;12.55;2.50;;;;;;;6.89;100.00;99694.84;6291794;22;20026;-68
2023/03/14 11:20:37;;;;;;;24.17;2.97;;;;;;;7.36;100.00;99706.69;6325628;22;20022;-69
2023/03/14 11:23:17;;;;;;;23.15;2.83;;;;;;;7.27;100.00;99709.97;6325964;22;20161;-71
2023/03/14 11:25:52;;;;;;;29.85;3.40;;;;;;;7.78;100.00;99708.19;6325963;22;20045;-69
2023/03/14 11:28:18;;;;;;;23.63;2.83;;;;;;;7.14;100.00;99720.56;6326287;22;20018;-69
2023/03/14 11:30:55;;;;;;;10.43;2.05;;;;;;;7.34;100.00;99736.94;6326554;22;20129;-68
2023/03/14 11:33:56;;;;;;;22.10;2.72;;;;;;;7.82;100.00;99738.00;6325987;22;20110;-68
2023/03/14 11:36:29;;;;;;;21.40;3.13;;;;;;;8.07;100.00;99737.13;6199148;23;20032;-68
2023/03/14 11:38:59;;;;;;;11.27;2.80;;;;;;;8.43;100.00;99749.63;6174112;23;20062;-69